Wetterdaten: aktuell Sonntag, 19.01.2020 19:55
Datum Zeit Temp. A. Temp. A. min Feuchte A. Luftdruck Regen Wind Richtung Richtung Sonnenschein Solar Taupunkt Windchill Windben
19.01.2020 19:55 1,4 C 1,3 C 92 % 1049,4 hPa 0,0 l/m 0,0 km/h (0 Bft) NO 38 0 min 0 W/m 0,2 C 1,4 C 0,0 km/h (0 Bft)
19.01.2020 19:50 1,4 C 1,4 C 92 % 1049,4 hPa 0,0 l/m 0,5 km/h (0 Bft) NO 39 0 min 0 W/m 0,2 C 1,4 C 3,2 km/h (1 Bft)
19.01.2020 19:45 1,4 C 1,4 C 92 % 1049,3 hPa 0,0 l/m 0,0 km/h (0 Bft) NO 39 0 min 0 W/m 0,2 C 1,4 C 1,6 km/h (1 Bft)
19.01.2020 19:40 1,4 C 1,4 C 92 % 1049,3 hPa 0,0 l/m 0,4 km/h (0 Bft) NO 39 0 min 0 W/m 0,2 C 1,4 C 3,2 km/h (1 Bft)
19.01.2020 19:35 1,5 C 1,5 C 92 % 1049,2 hPa 0,0 l/m 0,5 km/h (0 Bft) NO 40 0 min 0 W/m 0,3 C 1,5 C 3,2 km/h (1 Bft)
19.01.2020 19:30 1,6 C 1,6 C 92 % 1049,2 hPa 0,0 l/m 1,1 km/h (1 Bft) NO 43 0 min 0 W/m 0,4 C 1,6 C 4,8 km/h (1 Bft)
19.01.2020 19:25 1,6 C 1,6 C 91 % 1049,1 hPa 0,0 l/m 0,7 km/h (0 Bft) NO 41 0 min 0 W/m 0,3 C 1,6 C 3,2 km/h (1 Bft)
19.01.2020 19:20 1,7 C 1,7 C 91 % 1049,0 hPa 0,0 l/m 0,0 km/h (0 Bft) NO 38 0 min 0 W/m 0,4 C 1,7 C 0,0 km/h (0 Bft)
19.01.2020 19:15 1,8 C 1,8 C 91 % 1049,0 hPa 0,0 l/m 0,2 km/h (0 Bft) NO 38 0 min 0 W/m 0,5 C 1,8 C 1,6 km/h (1 Bft)
19.01.2020 19:10 1,8 C 1,8 C 91 % 1048,9 hPa 0,0 l/m 1,1 km/h (1 Bft) NO 38 0 min 0 W/m 0,5 C 1,8 C 3,2 km/h (1 Bft)
19.01.2020 19:05 1,9 C 1,9 C 91 % 1048,8 hPa 0,0 l/m 1,1 km/h (1 Bft) NO 39 0 min 0 W/m 0,6 C 1,9 C 4,8 km/h (1 Bft)
19.01.2020 19:00 2,0 C 2,0 C 91 % 1048,8 hPa 0,0 l/m 3,0 km/h (1 Bft) NO 37 0 min 0 W/m 0,7 C 2,0 C 6,4 km/h (2 Bft)
19.01.2020 18:55 2,0 C 2,0 C 91 % 1048,8 hPa 0,0 l/m 1,9 km/h (1 Bft) NO 36 0 min 0 W/m 0,7 C 2,0 C 6,4 km/h (2 Bft)
19.01.2020 18:50 2,0 C 2,0 C 91 % 1048,6 hPa 0,0 l/m 0,0 km/h (0 Bft) N 355 0 min 0 W/m 0,7 C 2,0 C 0,0 km/h (0 Bft)
19.01.2020 18:45 2,1 C 2,1 C 90 % 1048,5 hPa 0,0 l/m 0,7 km/h (0 Bft) N 355 0 min 0 W/m 0,6 C 2,1 C 4,8 km/h (1 Bft)
19.01.2020 18:40 2,1 C 2,1 C 90 % 1048,4 hPa 0,0 l/m 0,0 km/h (0 Bft) N-NO 29 0 min 0 W/m 0,6 C 2,1 C 0,0 km/h (0 Bft)
19.01.2020 18:35 2,2 C 2,2 C 90 % 1048,3 hPa 0,0 l/m 0,1 km/h (0 Bft) N-NO 29 0 min 0 W/m 0,7 C 2,2 C 1,6 km/h (1 Bft)
19.01.2020 18:30 2,4 C 2,4 C 90 % 1048,1 hPa 0,0 l/m 0,0 km/h (0 Bft) O-NO 75 0 min 0 W/m 0,9 C 2,4 C 0,0 km/h (0 Bft)
19.01.2020 18:25 2,5 C 2,5 C 90 % 1048,0 hPa 0,0 l/m 0,0 km/h (0 Bft) O-NO 75 0 min 0 W/m 1,0 C 2,5 C 0,0 km/h (0 Bft)
19.01.2020 18:20 2,7 C 2,7 C 90 % 1047,9 hPa 0,0 l/m 0,1 km/h (0 Bft) O-NO 75 0 min 0 W/m 1,2 C 2,7 C 1,6 km/h (1 Bft)
19.01.2020 18:15 2,8 C 2,8 C 90 % 1047,8 hPa 0,0 l/m 0,4 km/h (0 Bft) O-NO 76 0 min 0 W/m 1,3 C 2,8 C 3,2 km/h (1 Bft)
19.01.2020 18:10 2,9 C 2,9 C 90 % 1047,8 hPa 0,0 l/m 1,9 km/h (1 Bft) O-NO 76 0 min 0 W/m 1,4 C 2,9 C 4,8 km/h (1 Bft)
19.01.2020 18:05 3,0 C 3,0 C 90 % 1047,7 hPa 0,0 l/m 0,0 km/h (0 Bft) NO 55 0 min 0 W/m 1,5 C 3,0 C 1,6 km/h (1 Bft)
19.01.2020 18:00 3,1 C 3,1 C 90 % 1047,6 hPa 0,0 l/m 1,0 km/h (0 Bft) NO 42 0 min 0 W/m 1,6 C 3,1 C 4,8 km/h (1 Bft)
19.01.2020 17:55 3,1 C 3,1 C 90 % 1047,6 hPa 0,0 l/m 0,4 km/h (0 Bft) N-NO 18 0 min 0 W/m 1,6 C 3,1 C 3,2 km/h (1 Bft)
19.01.2020 17:50 3,2 C 3,2 C 90 % 1047,6 hPa 0,0 l/m 1,2 km/h (1 Bft) N-NO 18 0 min 0 W/m 1,7 C 3,2 C 3,2 km/h (1 Bft)
19.01.2020 17:45 3,2 C 3,2 C 89 % 1047,4 hPa 0,0 l/m 0,1 km/h (0 Bft) NO 47 0 min 0 W/m 1,6 C 3,2 C 1,6 km/h (1 Bft)
19.01.2020 17:40 3,3 C 3,3 C 89 % 1047,3 hPa 0,0 l/m 0,5 km/h (0 Bft) NO 47 0 min 0 W/m 1,7 C 3,3 C 1,6 km/h (1 Bft)
19.01.2020 17:35 3,3 C 3,3 C 89 % 1047,2 hPa 0,0 l/m 0,7 km/h (0 Bft) NO 48 0 min 0 W/m 1,7 C 3,3 C 3,2 km/h (1 Bft)
19.01.2020 17:30 3,4 C 3,4 C 89 % 1047,1 hPa 0,0 l/m 1,7 km/h (1 Bft) NO 53 0 min 0 W/m 1,8 C 3,4 C 3,2 km/h (1 Bft)
19.01.2020 17:25 3,4 C 3,4 C 89 % 1047,1 hPa 0,0 l/m 1,0 km/h (0 Bft) NO 53 0 min 0 W/m 1,8 C 3,4 C 3,2 km/h (1 Bft)
19.01.2020 17:20 3,5 C 3,5 C 89 % 1047,0 hPa 0,0 l/m 1,2 km/h (1 Bft) NO 53 0 min 0 W/m 1,9 C 3,5 C 3,2 km/h (1 Bft)
19.01.2020 17:15 3,6 C 3,6 C 89 % 1046,9 hPa 0,0 l/m 1,6 km/h (1 Bft) NO 53 0 min 0 W/m 2,0 C 3,6 C 3,2 km/h (1 Bft)
19.01.2020 17:10 3,6 C 3,6 C 89 % 1046,9 hPa 0,0 l/m 1,4 km/h (1 Bft) O-NO 61 0 min 0 W/m 2,0 C 3,6 C 4,8 km/h (1 Bft)
19.01.2020 17:05 3,6 C 3,6 C 89 % 1046,9 hPa 0,0 l/m 1,9 km/h (1 Bft) O-NO 71 0 min 0 W/m 2,0 C 3,6 C 3,2 km/h (1 Bft)
19.01.2020 17:00 3,6 C 3,6 C 89 % 1046,8 hPa 0,0 l/m 2,1 km/h (1 Bft) O-NO 74 0 min 0 W/m 2,0 C 3,6 C 4,8 km/h (1 Bft)
19.01.2020 16:55 3,7 C 3,7 C 89 % 1046,8 hPa 0,0 l/m 2,1 km/h (1 Bft) NO 44 0 min 0 W/m 2,1 C 3,7 C 4,8 km/h (1 Bft)
19.01.2020 16:50 3,7 C 3,7 C 89 % 1046,7 hPa 0,0 l/m 0,4 km/h (0 Bft) N-NO 16 0 min 0 W/m 2,1 C 3,7 C 3,2 km/h (1 Bft)
19.01.2020 16:45 3,7 C 3,7 C 89 % 1046,7 hPa 0,0 l/m 1,4 km/h (1 Bft) N 11 0 min 0 W/m 2,1 C 3,7 C 6,4 km/h (2 Bft)
19.01.2020 16:40 3,7 C 3,7 C 89 % 1046,6 hPa 0,0 l/m 0,7 km/h (0 Bft) N-NW 342 0 min 0 W/m 2,1 C 3,7 C 3,2 km/h (1 Bft)
19.01.2020 16:35 3,8 C 3,8 C 89 % 1046,6 hPa 0,0 l/m 1,9 km/h (1 Bft) N 5 0 min 0 W/m 2,2 C 3,8 C 4,8 km/h (1 Bft)
19.01.2020 16:30 3,8 C 3,8 C 89 % 1046,5 hPa 0,0 l/m 1,5 km/h (1 Bft) N-NO 33 0 min 0 W/m 2,2 C 3,8 C 4,8 km/h (1 Bft)
19.01.2020 16:25 3,8 C 3,8 C 89 % 1046,4 hPa 0,0 l/m 2,6 km/h (1 Bft) N-NO 32 0 min 0 W/m 2,2 C 3,8 C 4,8 km/h (1 Bft)
19.01.2020 16:20 3,9 C 3,9 C 89 % 1046,3 hPa 0,0 l/m 2,8 km/h (1 Bft) N-NO 32 0 min 0 W/m 2,3 C 3,9 C 4,8 km/h (1 Bft)
19.01.2020 16:15 3,9 C 3,9 C 89 % 1046,2 hPa 0,0 l/m 2,3 km/h (1 Bft) NO 34 0 min 0 W/m 2,3 C 3,9 C 4,8 km/h (1 Bft)
19.01.2020 16:10 3,9 C 3,9 C 89 % 1046,1 hPa 0,0 l/m 1,6 km/h (1 Bft) NO 38 0 min 0 W/m 2,3 C 3,9 C 4,8 km/h (1 Bft)
19.01.2020 16:05 4,0 C 4,0 C 89 % 1046,1 hPa 0,0 l/m 1,8 km/h (1 Bft) N 10 0 min 0 W/m 2,4 C 4,0 C 4,8 km/h (1 Bft)
19.01.2020 16:00 4,0 C 4,0 C 88 % 1046,0 hPa 0,0 l/m 2,8 km/h (1 Bft) N 360 0 min 0 W/m 2,2 C 4,0 C 4,8 km/h (1 Bft)
19.01.2020 15:55 4,1 C 4,0 C 88 % 1045,9 hPa 0,0 l/m 2,9 km/h (1 Bft) NO 44 0 min 0 W/m 2,3 C 4,1 C 6,4 km/h (2 Bft)
19.01.2020 15:50 4,1 C 4,1 C 88 % 1045,8 hPa 0,0 l/m 1,8 km/h (1 Bft) N 355 0 min 0 W/m 2,3 C 4,1 C 6,4 km/h (2 Bft)
19.01.2020 15:45 4,1 C 4,1 C 88 % 1045,7 hPa 0,0 l/m 1,2 km/h (1 Bft) N 355 0 min 0 W/m 2,3 C 4,1 C 4,8 km/h (1 Bft)
19.01.2020 15:40 4,1 C 4,1 C 88 % 1045,7 hPa 0,0 l/m 0,7 km/h (0 Bft) N-NW 346 0 min 0 W/m 2,3 C 4,1 C 4,8 km/h (1 Bft)
19.01.2020 15:35 4,1 C 4,1 C 88 % 1045,6 hPa 0,0 l/m 2,0 km/h (1 Bft) O-NO 67 0 min 0 W/m 2,3 C 4,1 C 6,4 km/h (2 Bft)
19.01.2020 15:30 4,1 C 4,1 C 88 % 1045,6 hPa 0,0 l/m 2,9 km/h (1 Bft) NO 43 0 min 0 W/m 2,3 C 4,1 C 4,8 km/h (1 Bft)
19.01.2020 15:25 4,1 C 4,1 C 88 % 1045,5 hPa 0,0 l/m 2,1 km/h (1 Bft) NO 50 0 min 0 W/m 2,3 C 4,1 C 4,8 km/h (1 Bft)
19.01.2020 15:20 4,1 C 4,1 C 88 % 1045,5 hPa 0,0 l/m 1,3 km/h (1 Bft) NO 34 0 min 0 W/m 2,3 C 4,1 C 6,4 km/h (2 Bft)
19.01.2020 15:15 4,1 C 4,1 C 88 % 1045,4 hPa 0,0 l/m 1,7 km/h (1 Bft) N-NO 22 0 min 0 W/m 2,3 C 4,1 C 4,8 km/h (1 Bft)
19.01.2020 15:10 4,1 C 4,0 C 88 % 1045,3 hPa 0,0 l/m 2,8 km/h (1 Bft) N-NO 30 0 min 0 W/m 2,3 C 4,1 C 6,4 km/h (2 Bft)
19.01.2020 15:05 4,1 C 4,0 C 88 % 1045,4 hPa 0,0 l/m 1,8 km/h (1 Bft) O-NO 57 0 min 0 W/m 2,3 C 4,1 C 4,8 km/h (1 Bft)
19.01.2020 15:00 4,0 C 4,0 C 88 % 1045,3 hPa 0,0 l/m 1,5 km/h (1 Bft) N 360 0 min 0 W/m 2,2 C 4,0 C 4,8 km/h (1 Bft)
19.01.2020 14:55 4,0 C 3,9 C 88 % 1045,2 hPa 0,0 l/m 2,1 km/h (1 Bft) N-NO 33 0 min 0 W/m 2,2 C 4,0 C 6,4 km/h (2 Bft)
19.01.2020 14:50 3,9 C 3,9 C 88 % 1045,2 hPa 0,0 l/m 1,8 km/h (1 Bft) O-NO 57 0 min 0 W/m 2,1 C 3,9 C 3,2 km/h (1 Bft)
19.01.2020 14:45 3,9 C 3,9 C 88 % 1045,2 hPa 0,0 l/m 1,5 km/h (1 Bft) NO 51 0 min 0 W/m 2,1 C 3,9 C 3,2 km/h (1 Bft)
19.01.2020 14:40 3,9 C 3,9 C 88 % 1045,2 hPa 0,0 l/m 1,6 km/h (1 Bft) N-NO 13 0 min 0 W/m 2,1 C 3,9 C 6,4 km/h (2 Bft)
19.01.2020 14:35 3,9 C 3,9 C 88 % 1045,1 hPa 0,0 l/m 4,0 km/h (1 Bft) NO 34 0 min 0 W/m 2,1 C 3,9 C 6,4 km/h (2 Bft)
19.01.2020 14:30 3,9 C 3,9 C 88 % 1045,0 hPa 0,0 l/m 3,3 km/h (1 Bft) NO 36 0 min 0 W/m 2,1 C 3,9 C 6,4 km/h (2 Bft)
19.01.2020 14:25 3,9 C 3,8 C 88 % 1045,0 hPa 0,0 l/m 2,8 km/h (1 Bft) NO 43 0 min 0 W/m 2,1 C 3,9 C 6,4 km/h (2 Bft)
19.01.2020 14:20 3,8 C 3,8 C 88 % 1045,0 hPa 0,0 l/m 3,4 km/h (1 Bft) N-NW 342 0 min 0 W/m 2,0 C 3,8 C 6,4 km/h (2 Bft)
19.01.2020 14:15 3,8 C 3,8 C 89 % 1044,9 hPa 0,0 l/m 3,9 km/h (1 Bft) N 11 0 min 0 W/m 2,2 C 3,8 C 8,0 km/h (2 Bft)
19.01.2020 14:10 3,8 C 3,8 C 89 % 1044,9 hPa 0,0 l/m 6,0 km/h (2 Bft) N-NW 327 0 min 0 W/m 2,2 C 2,3 C 11,3 km/h (2 Bft)
19.01.2020 14:05 3,8 C 3,7 C 90 % 1044,9 hPa 0,0 l/m 7,1 km/h (2 Bft) N-NW 335 0 min 0 W/m 2,3 C 2,0 C 14,5 km/h (3 Bft)
19.01.2020 14:00 3,7 C 3,7 C 91 % 1044,8 hPa 0,0 l/m 5,0 km/h (1 Bft) N-NW 328 0 min 0 W/m 2,4 C 2,6 C 11,3 km/h (2 Bft)
19.01.2020 13:55 3,7 C 3,6 C 92 % 1044,8 hPa 0,0 l/m 4,2 km/h (1 Bft) NW 313 0 min 0 W/m 2,5 C 3,7 C 9,7 km/h (2 Bft)
19.01.2020 13:50 3,6 C 3,5 C 92 % 1044,8 hPa 0,0 l/m 3,5 km/h (1 Bft) NW 312 0 min 0 W/m 2,4 C 3,6 C 9,7 km/h (2 Bft)
19.01.2020 13:45 3,5 C 3,4 C 92 % 1044,7 hPa 0,0 l/m 2,2 km/h (1 Bft) N 5 0 min 0 W/m 2,3 C 3,5 C 6,4 km/h (2 Bft)
19.01.2020 13:40 3,4 C 3,4 C 92 % 1044,7 hPa 0,0 l/m 1,7 km/h (1 Bft) N-NO 17 0 min 0 W/m 2,2 C 3,4 C 4,8 km/h (1 Bft)
19.01.2020 13:35 3,4 C 3,3 C 93 % 1044,7 hPa 0,0 l/m 2,9 km/h (1 Bft) N 5 0 min 0 W/m 2,4 C 3,4 C 11,3 km/h (2 Bft)
19.01.2020 13:30 3,3 C 3,3 C 93 % 1044,8 hPa 0,0 l/m 4,2 km/h (1 Bft) N 10 0 min 0 W/m 2,3 C 3,3 C 9,7 km/h (2 Bft)
19.01.2020 13:25 3,3 C 3,2 C 93 % 1044,7 hPa 0,0 l/m 7,7 km/h (2 Bft) N 351 0 min 0 W/m 2,3 C 1,2 C 12,9 km/h (3 Bft)
19.01.2020 13:20 3,2 C 3,2 C 94 % 1044,7 hPa 0,0 l/m 5,5 km/h (1 Bft) N-NW 331 0 min 0 W/m 2,3 C 1,8 C 9,7 km/h (2 Bft)
19.01.2020 13:15 3,3 C 3,2 C 94 % 1044,7 hPa 0,0 l/m 4,8 km/h (1 Bft) N-NW 348 0 min 0 W/m 2,4 C 2,2 C 11,3 km/h (2 Bft)
19.01.2020 13:10 3,2 C 3,2 C 94 % 1044,6 hPa 0,0 l/m 4,8 km/h (1 Bft) N-NW 334 0 min 0 W/m 2,3 C 2,1 C 11,3 km/h (2 Bft)
19.01.2020 13:05 3,2 C 3,2 C 94 % 1044,6 hPa 0,0 l/m 3,5 km/h (1 Bft) N-NW 340 0 min 0 W/m 2,3 C 3,2 C 8,0 km/h (2 Bft)
19.01.2020 13:00 3,2 C 3,1 C 94 % 1044,6 hPa 0,0 l/m 3,9 km/h (1 Bft) N-NW 327 0 min 0 W/m 2,3 C 3,2 C 8,0 km/h (2 Bft)
19.01.2020 12:55 3,1 C 3,1 C 94 % 1044,6 hPa 0,0 l/m 1,9 km/h (1 Bft) N 5 0 min 0 W/m 2,2 C 3,1 C 6,4 km/h (2 Bft)
19.01.2020 12:50 3,1 C 3,0 C 95 % 1044,5 hPa 0,0 l/m 1,9 km/h (1 Bft) N 5 0 min 0 W/m 2,4 C 3,1 C 4,8 km/h (1 Bft)
19.01.2020 12:45 3,0 C 2,9 C 94 % 1044,6 hPa 0,0 l/m 0,3 km/h (0 Bft) NO 44 0 min 0 W/m 2,1 C 3,0 C 3,2 km/h (1 Bft)
19.01.2020 12:40 2,9 C 2,9 C 94 % 1044,6 hPa 0,0 l/m 0,0 km/h (0 Bft) N 360 0 min 0 W/m 2,0 C 2,9 C 0,0 km/h (0 Bft)
19.01.2020 12:35 2,9 C 2,8 C 94 % 1044,5 hPa 0,0 l/m 0,0 km/h (0 Bft) N 360 0 min 0 W/m 2,0 C 2,9 C 0,0 km/h (0 Bft)
19.01.2020 12:30 2,8 C 2,7 C 95 % 1044,5 hPa 0,0 l/m 0,1 km/h (0 Bft) N 355 0 min 0 W/m 2,1 C 2,8 C 3,2 km/h (1 Bft)
19.01.2020 12:25 2,7 C 2,7 C 95 % 1044,5 hPa 0,0 l/m 0,0 km/h (0 Bft) N-NO 17 0 min 0 W/m 2,0 C 2,7 C 0,0 km/h (0 Bft)
19.01.2020 12:20 2,7 C 2,7 C 94 % 1044,5 hPa 0,0 l/m 0,0 km/h (0 Bft) N-NO 17 0 min 0 W/m 1,8 C 2,7 C 0,0 km/h (0 Bft)
19.01.2020 12:15 2,7 C 2,6 C 94 % 1044,5 hPa 0,0 l/m 0,0 km/h (0 Bft) N-NO 17 0 min 0 W/m 1,8 C 2,7 C 0,0 km/h (0 Bft)
19.01.2020 12:10 2,6 C 2,6 C 94 % 1044,4 hPa 0,0 l/m 0,2 km/h (0 Bft) N-NO 17 0 min 0 W/m 1,7 C 2,6 C 1,6 km/h (1 Bft)
19.01.2020 12:05 2,6 C 2,6 C 94 % 1044,5 hPa 0,0 l/m 1,7 km/h (1 Bft) N-NO 17 0 min 0 W/m 1,7 C 2,6 C 4,8 km/h (1 Bft)
19.01.2020 12:00 2,6 C 2,5 C 95 % 1044,4 hPa 0,0 l/m 1,5 km/h (1 Bft) N 9 0 min 0 W/m 1,9 C 2,6 C 4,8 km/h (1 Bft)
19.01.2020 11:55 2,5 C 2,3 C 95 % 1044,3 hPa 0,0 l/m 0,5 km/h (0 Bft) N 355 0 min 0 W/m 1,8 C 2,5 C 3,2 km/h (1 Bft)
19.01.2020 11:50 2,3 C 2,3 C 94 % 1044,3 hPa 0,0 l/m 0,6 km/h (0 Bft) W-NW 299 0 min 0 W/m 1,4 C 2,3 C 3,2 km/h (1 Bft)
19.01.2020 11:45 2,3 C 2,2 C 94 % 1044,3 hPa 0,0 l/m 0,3 km/h (0 Bft) N-NW 342 0 min 0 W/m 1,4 C 2,3 C 3,2 km/h (1 Bft)
19.01.2020 11:40 2,2 C 2,2 C 94 % 1044,3 hPa 0,2 l/m 0,0 km/h (0 Bft) W-NW 285 0 min 0 W/m 1,3 C 2,2 C 0,0 km/h (0 Bft)
19.01.2020 11:35 2,2 C 2,1 C 94 % 1044,3 hPa 0,0 l/m 0,1 km/h (0 Bft) W-NW 285 0 min 0 W/m 1,3 C 2,2 C 1,6 km/h (1 Bft)
19.01.2020 11:30 2,1 C 2,1 C 94 % 1044,3 hPa 0,0 l/m 0,7 km/h (0 Bft) W-NW 284 0 min 0 W/m 1,2 C 2,1 C 4,8 km/h (1 Bft)
19.01.2020 11:25 2,1 C 2,1 C 94 % 1044,2 hPa 0,2 l/m 0,3 km/h (0 Bft) W 279 0 min 0 W/m 1,2 C 2,1 C 3,2 km/h (1 Bft)
19.01.2020 11:20 2,2 C 2,2 C 94 % 1044,2 hPa 0,0 l/m 0,8 km/h (0 Bft) W-NW 282 0 min 0 W/m 1,3 C 2,2 C 4,8 km/h (1 Bft)
19.01.2020 11:15 2,2 C 2,2 C 94 % 1044,1 hPa 0,0 l/m 0,3 km/h (0 Bft) W-NW 290 0 min 0 W/m 1,3 C 2,2 C 1,6 km/h (1 Bft)
19.01.2020 11:10 2,3 C 2,3 C 94 % 1044,1 hPa 0,0 l/m 0,5 km/h (0 Bft) W-NW 288 0 min 0 W/m 1,4 C 2,3 C 4,8 km/h (1 Bft)
19.01.2020 11:05 2,4 C 2,4 C 94 % 1044,1 hPa 0,0 l/m 2,6 km/h (1 Bft) N-NW 346 0 min 0 W/m 1,5 C 2,4 C 6,4 km/h (2 Bft)
19.01.2020 11:00 2,4 C 2,3 C 95 % 1044,0 hPa 0,0 l/m 1,0 km/h (0 Bft) N-NW 340 0 min 0 W/m 1,7 C 2,4 C 4,8 km/h (1 Bft)
19.01.2020 10:55 2,3 C 2,3 C 95 % 1043,9 hPa 0,0 l/m 1,0 km/h (0 Bft) W-NW 283 0 min 0 W/m 1,6 C 2,3 C 6,4 km/h (2 Bft)
19.01.2020 10:50 2,3 C 2,2 C 95 % 1043,8 hPa 0,0 l/m 2,6 km/h (1 Bft) W-NW 294 0 min 0 W/m 1,6 C 2,3 C 9,7 km/h (2 Bft)
19.01.2020 10:45 2,2 C 2,2 C 95 % 1043,7 hPa 0,0 l/m 3,1 km/h (1 Bft) N-NW 329 0 min 0 W/m 1,5 C 2,2 C 8,0 km/h (2 Bft)
19.01.2020 10:40 2,2 C 2,2 C 95 % 1043,6 hPa 0,0 l/m 4,6 km/h (1 Bft) NW 325 0 min 0 W/m 1,5 C 1,1 C 9,7 km/h (2 Bft)
19.01.2020 10:35 2,2 C 2,1 C 95 % 1043,5 hPa 0,0 l/m 2,5 km/h (1 Bft) W-NW 292 0 min 0 W/m 1,5 C 2,2 C 6,4 km/h (2 Bft)
19.01.2020 10:30 2,2 C 2,1 C 95 % 1043,5 hPa 0,0 l/m 1,1 km/h (1 Bft) N-NW 348 0 min 0 W/m 1,5 C 2,2 C 6,4 km/h (2 Bft)
19.01.2020 10:25 2,1 C 2,1 C 95 % 1043,4 hPa 0,0 l/m 1,2 km/h (1 Bft) NW 314 0 min 0 W/m 1,4 C 2,1 C 6,4 km/h (2 Bft)
19.01.2020 10:20 2,1 C 2,1 C 95 % 1043,3 hPa 0,0 l/m 1,7 km/h (1 Bft) NW 323 0 min 0 W/m 1,4 C 2,1 C 6,4 km/h (2 Bft)
19.01.2020 10:15 2,1 C 2,1 C 95 % 1043,3 hPa 0,0 l/m 1,6 km/h (1 Bft) N-NO 26 0 min 0 W/m 1,4 C 2,1 C 8,0 km/h (2 Bft)
19.01.2020 10:10 2,1 C 2,1 C 95 % 1043,2 hPa 0,0 l/m 1,1 km/h (1 Bft) W-NW 302 0 min 0 W/m 1,4 C 2,1 C 4,8 km/h (1 Bft)
19.01.2020 10:05 2,1 C 2,1 C 95 % 1043,1 hPa 0,0 l/m 1,3 km/h (1 Bft) N 360 0 min 0 W/m 1,4 C 2,1 C 6,4 km/h (2 Bft)
19.01.2020 10:00 2,1 C 2,1 C 95 % 1043,1 hPa 0,0 l/m 0,3 km/h (0 Bft) NW 316 0 min 0 W/m 1,4 C 2,1 C 1,6 km/h (1 Bft)
19.01.2020 09:55 2,1 C 2,0 C 95 % 1043,0 hPa 0,0 l/m 2,3 km/h (1 Bft) N 5 0 min 0 W/m 1,4 C 2,1 C 6,4 km/h (2 Bft)
19.01.2020 09:50 2,0 C 1,9 C 95 % 1043,0 hPa 0,0 l/m 0,5 km/h (0 Bft) NW 323 0 min 0 W/m 1,3 C 2,0 C 6,4 km/h (2 Bft)
19.01.2020 09:45 1,9 C 1,9 C 95 % 1042,8 hPa 0,0 l/m 1,0 km/h (0 Bft) W 281 0 min 0 W/m 1,2 C 1,9 C 4,8 km/h (1 Bft)
19.01.2020 09:40 1,9 C 1,9 C 95 % 1042,7 hPa 0,0 l/m 0,4 km/h (0 Bft) W 280 0 min 0 W/m 1,2 C 1,9 C 3,2 km/h (1 Bft)
19.01.2020 09:35 1,9 C 1,8 C 95 % 1042,6 hPa 0,0 l/m 0,0 km/h (0 Bft) N-NW 327 0 min 0 W/m 1,2 C 1,9 C 1,6 km/h (1 Bft)
19.01.2020 09:30 1,8 C 1,8 C 95 % 1042,6 hPa 0,0 l/m 0,6 km/h (0 Bft) N-NW 327 0 min 0 W/m 1,1 C 1,8 C 3,2 km/h (1 Bft)
19.01.2020 09:25 1,8 C 1,8 C 95 % 1042,5 hPa 0,0 l/m 0,0 km/h (0 Bft) W-NW 282 0 min 0 W/m 1,1 C 1,8 C 0,0 km/h (0 Bft)
19.01.2020 09:20 1,8 C 1,8 C 95 % 1042,4 hPa 0,0 l/m 0,0 km/h (0 Bft) W-NW 282 0 min 0 W/m 1,1 C 1,8 C 1,6 km/h (1 Bft)
19.01.2020 09:15 1,8 C 1,8 C 95 % 1042,4 hPa 0,0 l/m 0,0 km/h (0 Bft) W-NW 282 0 min 0 W/m 1,1 C 1,8 C 1,6 km/h (1 Bft)
19.01.2020 09:10 1,8 C 1,8 C 95 % 1042,2 hPa 0,0 l/m 0,0 km/h (0 Bft) W-NW 282 0 min 0 W/m 1,1 C 1,8 C 0,0 km/h (0 Bft)
19.01.2020 09:05 1,8 C 1,8 C 95 % 1042,1 hPa 0,0 l/m 0,1 km/h (0 Bft) W-NW 282 0 min 0 W/m 1,1 C 1,8 C 1,6 km/h (1 Bft)
19.01.2020 09:00 1,8 C 1,8 C 95 % 1042,1 hPa 0,0 l/m 0,1 km/h (0 Bft) NW 317 0 min 0 W/m 1,1 C 1,8 C 1,6 km/h (1 Bft)
19.01.2020 08:55 1,8 C 1,8 C 95 % 1042,1 hPa 0,0 l/m 0,0 km/h (0 Bft) N-NW 328 0 min 0 W/m 1,1 C 1,8 C 1,6 km/h (1 Bft)
19.01.2020 08:50 1,8 C 1,8 C 95 % 1042,0 hPa 0,0 l/m 0,0 km/h (0 Bft) NW 325 0 min 0 W/m 1,1 C 1,8 C 0,0 km/h (0 Bft)
19.01.2020 08:45 1,8 C 1,7 C 95 % 1042,0 hPa 0,0 l/m 0,0 km/h (0 Bft) NW 325 0 min 0 W/m 1,1 C 1,8 C 0,0 km/h (0 Bft)
19.01.2020 08:40 1,7 C 1,7 C 95 % 1041,9 hPa 0,0 l/m 0,0 km/h (0 Bft) NW 325 0 min 0 W/m 1,0 C 1,7 C 0,0 km/h (0 Bft)
19.01.2020 08:35 1,7 C 1,7 C 95 % 1041,8 hPa 0,0 l/m 0,0 km/h (0 Bft) NW 325 0 min 0 W/m 1,0 C 1,7 C 0,0 km/h (0 Bft)
19.01.2020 08:30 1,7 C 1,6 C 95 % 1041,8 hPa 0,0 l/m 0,0 km/h (0 Bft) NW 325 0 min 0 W/m 1,0 C 1,7 C 0,0 km/h (0 Bft)
19.01.2020 08:25 1,6 C 1,6 C 95 % 1041,7 hPa 0,0 l/m 0,0 km/h (0 Bft) NW 325 0 min 0 W/m 0,9 C 1,6 C 0,0 km/h (0 Bft)
19.01.2020 08:20 1,6 C 1,6 C 95 % 1041,6 hPa 0,0 l/m 0,0 km/h (0 Bft) NW 325 0 min 0 W/m 0,9 C 1,6 C 0,0 km/h (0 Bft)
19.01.2020 08:15 1,6 C 1,6 C 95 % 1041,5 hPa 0,0 l/m 0,0 km/h (0 Bft) NW 325 0 min 0 W/m 0,9 C 1,6 C 0,0 km/h (0 Bft)
19.01.2020 08:10 1,6 C 1,6 C 95 % 1041,4 hPa 0,0 l/m 0,0 km/h (0 Bft) NW 325 0 min 0 W/m 0,9 C 1,6 C 0,0 km/h (0 Bft)
19.01.2020 08:05 1,6 C 1,6 C 95 % 1041,3 hPa 0,0 l/m 0,0 km/h (0 Bft) NW 325 0 min 0 W/m 0,9 C 1,6 C 0,0 km/h (0 Bft)
19.01.2020 08:00 1,6 C 1,6 C 95 % 1041,2 hPa 0,0 l/m 0,0 km/h (0 Bft) NW 325 0 min 0 W/m 0,9 C 1,6 C 0,0 km/h (0 Bft)
19.01.2020 07:55 1,6 C 1,6 C 95 % 1041,1 hPa 0,0 l/m 0,0 km/h (0 Bft) NW 325 0 min 0 W/m 0,9 C 1,6 C 0,0 km/h (0 Bft)
19.01.2020 07:50 1,6 C 1,6 C 95 % 1041,1 hPa 0,0 l/m 0,0 km/h (0 Bft) NW 325 0 min 0 W/m 0,9 C 1,6 C 0,0 km/h (0 Bft)
19.01.2020 07:45 1,6 C 1,6 C 95 % 1041,0 hPa 0,0 l/m 0,0 km/h (0 Bft) NW 325 0 min 0 W/m 0,9 C 1,6 C 1,6 km/h (1 Bft)
19.01.2020 07:40 1,6 C 1,6 C 95 % 1040,9 hPa 0,0 l/m 0,0 km/h (0 Bft) NW 325 0 min 0 W/m 0,9 C 1,6 C 0,0 km/h (0 Bft)
19.01.2020 07:35 1,6 C 1,6 C 95 % 1040,8 hPa 0,0 l/m 0,0 km/h (0 Bft) NW 325 0 min 0 W/m 0,9 C 1,6 C 0,0 km/h (0 Bft)
19.01.2020 07:30 1,6 C 1,6 C 95 % 1040,8 hPa 0,0 l/m 0,0 km/h (0 Bft) NW 325 0 min 0 W/m 0,9 C 1,6 C 0,0 km/h (0 Bft)
19.01.2020 07:25 1,6 C 1,5 C 95 % 1040,7 hPa 0,0 l/m 0,0 km/h (0 Bft) NW 325 0 min 0 W/m 0,9 C 1,6 C 0,0 km/h (0 Bft)
19.01.2020 07:20 1,6 C 1,5 C 95 % 1040,8 hPa 0,0 l/m 0,0 km/h (0 Bft) NW 325 0 min 0 W/m 0,9 C 1,6 C 0,0 km/h (0 Bft)
19.01.2020 07:15 1,5 C 1,5 C 95 % 1040,7 hPa 0,0 l/m 0,0 km/h (0 Bft) NW 325 0 min 0 W/m 0,8 C 1,5 C 0,0 km/h (0 Bft)
19.01.2020 07:10 1,5 C 1,5 C 95 % 1040,7 hPa 0,0 l/m 0,0 km/h (0 Bft) NW 325 0 min 0 W/m 0,8 C 1,5 C 0,0 km/h (0 Bft)
19.01.2020 07:05 1,5 C 1,5 C 95 % 1040,7 hPa 0,0 l/m 0,0 km/h (0 Bft) NW 325 0 min 0 W/m 0,8 C 1,5 C 0,0 km/h (0 Bft)
19.01.2020 07:00 1,5 C 1,5 C 95 % 1040,7 hPa 0,0 l/m 0,0 km/h (0 Bft) NW 325 0 min 0 W/m 0,8 C 1,5 C 0,0 km/h (0 Bft)
19.01.2020 06:55 1,5 C 1,5 C 95 % 1040,6 hPa 0,0 l/m 0,0 km/h (0 Bft) NW 325 0 min 0 W/m 0,8 C 1,5 C 0,0 km/h (0 Bft)
19.01.2020 06:50 1,5 C 1,5 C 95 % 1040,5 hPa 0,0 l/m 0,0 km/h (0 Bft) NW 325 0 min 0 W/m 0,8 C 1,5 C 0,0 km/h (0 Bft)
19.01.2020 06:45 1,5 C 1,5 C 95 % 1040,5 hPa 0,0 l/m 0,0 km/h (0 Bft) NW 325 0 min 0 W/m 0,8 C 1,5 C 0,0 km/h (0 Bft)
19.01.2020 06:40 1,5 C 1,5 C 95 % 1040,4 hPa 0,0 l/m 0,0 km/h (0 Bft) NW 325 0 min 0 W/m 0,8 C 1,5 C 0,0 km/h (0 Bft)
19.01.2020 06:35 1,5 C 1,4 C 95 % 1040,4 hPa 0,0 l/m 0,0 km/h (0 Bft) NW 325 0 min 0 W/m 0,8 C 1,5 C 0,0 km/h (0 Bft)
19.01.2020 06:30 1,4 C 1,4 C 95 % 1040,3 hPa 0,0 l/m 0,0 km/h (0 Bft) NW 325 0 min 0 W/m 0,7 C 1,4 C 0,0 km/h (0 Bft)
19.01.2020 06:25 1,4 C 1,4 C 95 % 1040,3 hPa 0,0 l/m 0,0 km/h (0 Bft) NW 325 0 min 0 W/m 0,7 C 1,4 C 0,0 km/h (0 Bft)
19.01.2020 06:20 1,4 C 1,4 C 95 % 1040,3 hPa 0,0 l/m 0,1 km/h (0 Bft) NW 325 0 min 0 W/m 0,7 C 1,4 C 1,6 km/h (1 Bft)
19.01.2020 06:15 1,4 C 1,3 C 95 % 1040,2 hPa 0,0 l/m 0,0 km/h (0 Bft) N-NW 340 0 min 0 W/m 0,7 C 1,4 C 0,0 km/h (0 Bft)
19.01.2020 06:10 1,3 C 1,3 C 95 % 1040,1 hPa 0,0 l/m 0,0 km/h (0 Bft) N-NW 340 0 min 0 W/m 0,6 C 1,3 C 0,0 km/h (0 Bft)
19.01.2020 06:05 1,3 C 1,3 C 95 % 1040,0 hPa 0,0 l/m 0,0 km/h (0 Bft) N-NW 340 0 min 0 W/m 0,6 C 1,3 C 0,0 km/h (0 Bft)
19.01.2020 06:00 1,3 C 1,3 C 95 % 1039,8 hPa 0,0 l/m 0,0 km/h (0 Bft) N-NW 340 0 min 0 W/m 0,6 C 1,3 C 0,0 km/h (0 Bft)
19.01.2020 05:55 1,3 C 1,3 C 95 % 1039,8 hPa 0,0 l/m 0,0 km/h (0 Bft) N 349 0 min 0 W/m 0,6 C 1,3 C 0,0 km/h (0 Bft)
19.01.2020 05:50 1,3 C 1,3 C 95 % 1039,8 hPa 0,0 l/m 0,0 km/h (0 Bft) N 349 0 min 0 W/m 0,6 C 1,3 C 0,0 km/h (0 Bft)
19.01.2020 05:45 1,3 C 1,3 C 95 % 1039,8 hPa 0,0 l/m 0,0 km/h (0 Bft) N 349 0 min 0 W/m 0,6 C 1,3 C 0,0 km/h (0 Bft)
19.01.2020 05:40 1,3 C 1,2 C 95 % 1039,8 hPa 0,0 l/m 0,0 km/h (0 Bft) N 349 0 min 0 W/m 0,6 C 1,3 C 0,0 km/h (0 Bft)
19.01.2020 05:35 1,3 C 1,2 C 95 % 1039,8 hPa 0,0 l/m 0,0 km/h (0 Bft) N 349 0 min 0 W/m 0,6 C 1,3 C 0,0 km/h (0 Bft)
19.01.2020 05:30 1,3 C 1,2 C 95 % 1039,8 hPa 0,0 l/m 0,0 km/h (0 Bft) N 349 0 min 0 W/m 0,6 C 1,3 C 0,0 km/h (0 Bft)
19.01.2020 05:25 1,2 C 1,2 C 95 % 1039,8 hPa 0,0 l/m 0,0 km/h (0 Bft) N 349 0 min 0 W/m 0,5 C 1,2 C 0,0 km/h (0 Bft)
19.01.2020 05:20 1,2 C 1,2 C 95 % 1039,8 hPa 0,0 l/m 0,0 km/h (0 Bft) N 349 0 min 0 W/m 0,5 C 1,2 C 0,0 km/h (0 Bft)
19.01.2020 05:15 1,2 C 1,2 C 95 % 1039,8 hPa 0,0 l/m 0,0 km/h (0 Bft) N 349 0 min 0 W/m 0,5 C 1,2 C 0,0 km/h (0 Bft)
19.01.2020 05:10 1,2 C 1,2 C 95 % 1039,7 hPa 0,0 l/m 0,0 km/h (0 Bft) N 349 0 min 0 W/m 0,5 C 1,2 C 0,0 km/h (0 Bft)
19.01.2020 05:05 1,2 C 1,2 C 95 % 1039,7 hPa 0,0 l/m 0,0 km/h (0 Bft) N 349 0 min 0 W/m 0,5 C 1,2 C 0,0 km/h (0 Bft)
19.01.2020 05:00 1,2 C 1,1 C 95 % 1039,6 hPa 0,0 l/m 0,0 km/h (0 Bft) N 349 0 min 0 W/m 0,5 C 1,2 C 0,0 km/h (0 Bft)
19.01.2020 04:55 1,2 C 1,1 C 95 % 1039,6 hPa 0,0 l/m 0,0 km/h (0 Bft) N-NW 348 0 min 0 W/m 0,5 C 1,2 C 0,0 km/h (0 Bft)
19.01.2020 04:50 1,1 C 1,1 C 95 % 1039,6 hPa 0,0 l/m 0,0 km/h (0 Bft) N-NW 348 0 min 0 W/m 0,4 C 1,1 C 0,0 km/h (0 Bft)
19.01.2020 04:45 1,1 C 1,0 C 95 % 1039,5 hPa 0,0 l/m 0,0 km/h (0 Bft) N-NW 348 0 min 0 W/m 0,4 C 1,1 C 0,0 km/h (0 Bft)
19.01.2020 04:40 1,0 C 1,0 C 95 % 1039,5 hPa 0,0 l/m 0,0 km/h (0 Bft) N-NW 348 0 min 0 W/m 0,3 C 1,0 C 0,0 km/h (0 Bft)
19.01.2020 04:35 1,0 C 0,9 C 95 % 1039,4 hPa 0,0 l/m 0,0 km/h (0 Bft) N-NW 348 0 min 0 W/m 0,3 C 1,0 C 0,0 km/h (0 Bft)
19.01.2020 04:30 0,9 C 0,9 C 95 % 1039,5 hPa 0,0 l/m 0,0 km/h (0 Bft) N 349 0 min 0 W/m 0,2 C 0,9 C 0,0 km/h (0 Bft)
19.01.2020 04:25 0,9 C 0,8 C 95 % 1039,3 hPa 0,0 l/m 0,0 km/h (0 Bft) N 349 0 min 0 W/m 0,2 C 0,9 C 0,0 km/h (0 Bft)
19.01.2020 04:20 0,8 C 0,8 C 95 % 1039,3 hPa 0,0 l/m 0,0 km/h (0 Bft) N 349 0 min 0 W/m 0,1 C 0,8 C 0,0 km/h (0 Bft)
19.01.2020 04:15 0,8 C 0,8 C 95 % 1039,2 hPa 0,0 l/m 0,0 km/h (0 Bft) N 349 0 min 0 W/m 0,1 C 0,8 C 0,0 km/h (0 Bft)
19.01.2020 04:10 0,8 C 0,8 C 94 % 1039,2 hPa 0,0 l/m 0,0 km/h (0 Bft) N 349 0 min 0 W/m -0,1 C 0,8 C 0,0 km/h (0 Bft)
19.01.2020 04:05 0,8 C 0,8 C 94 % 1039,2 hPa 0,0 l/m 0,0 km/h (0 Bft) N 349 0 min 0 W/m -0,1 C 0,8 C 0,0 km/h (0 Bft)
19.01.2020 04:00 0,8 C 0,8 C 95 % 1039,1 hPa 0,0 l/m 0,0 km/h (0 Bft) N 349 0 min 0 W/m 0,1 C 0,8 C 0,0 km/h (0 Bft)
19.01.2020 03:55 0,8 C 0,8 C 94 % 1039,0 hPa 0,0 l/m 0,0 km/h (0 Bft) N 349 0 min 0 W/m -0,1 C 0,8 C 1,6 km/h (1 Bft)
19.01.2020 03:50 0,8 C 0,8 C 95 % 1039,1 hPa 0,0 l/m 0,0 km/h (0 Bft) N 349 0 min 0 W/m 0,1 C 0,8 C 0,0 km/h (0 Bft)
19.01.2020 03:45 0,8 C 0,8 C 95 % 1039,0 hPa 0,0 l/m 0,0 km/h (0 Bft) N 349 0 min 0 W/m 0,1 C 0,8 C 0,0 km/h (0 Bft)
19.01.2020 03:40 0,8 C 0,8 C 95 % 1039,0 hPa 0,0 l/m 0,0 km/h (0 Bft) N 349 0 min 0 W/m 0,1 C 0,8 C 0,0 km/h (0 Bft)
19.01.2020 03:35 0,8 C 0,8 C 94 % 1039,1 hPa 0,0 l/m 0,0 km/h (0 Bft) N 349 0 min 0 W/m -0,1 C 0,8 C 0,0 km/h (0 Bft)
19.01.2020 03:30 0,8 C 0,7 C 94 % 1039,0 hPa 0,0 l/m 0,0 km/h (0 Bft) N 349 0 min 0 W/m -0,1 C 0,8 C 0,0 km/h (0 Bft)
19.01.2020 03:25 0,7 C 0,7 C 94 % 1039,0 hPa 0,0 l/m 0,0 km/h (0 Bft) N 349 0 min 0 W/m -0,2 C 0,7 C 0,0 km/h (0 Bft)
19.01.2020 03:20 0,7 C 0,7 C 94 % 1039,0 hPa 0,0 l/m 0,0 km/h (0 Bft) N 349 0 min 0 W/m -0,2 C 0,7 C 0,0 km/h (0 Bft)
19.01.2020 03:15 0,7 C 0,7 C 94 % 1039,0 hPa 0,0 l/m 0,0 km/h (0 Bft) N 349 0 min 0 W/m -0,2 C 0,7 C 0,0 km/h (0 Bft)
19.01.2020 03:10 0,7 C 0,7 C 94 % 1039,0 hPa 0,0 l/m 0,0 km/h (0 Bft) N 349 0 min 0 W/m -0,2 C 0,7 C 0,0 km/h (0 Bft)
19.01.2020 03:05 0,7 C 0,7 C 94 % 1038,9 hPa 0,0 l/m 0,0 km/h (0 Bft) N 349 0 min 0 W/m -0,2 C 0,7 C 1,6 km/h (1 Bft)
19.01.2020 03:00 0,7 C 0,6 C 94 % 1038,9 hPa 0,0 l/m 0,0 km/h (0 Bft) N 349 0 min 0 W/m -0,2 C 0,7 C 0,0 km/h (0 Bft)
19.01.2020 02:55 0,6 C 0,6 C 94 % 1038,8 hPa 0,0 l/m 0,0 km/h (0 Bft) N 349 0 min 0 W/m -0,3 C 0,6 C 0,0 km/h (0 Bft)
19.01.2020 02:50 0,6 C 0,6 C 94 % 1038,8 hPa 0,0 l/m 0,0 km/h (0 Bft) N 349 0 min 0 W/m -0,3 C 0,6 C 0,0 km/h (0 Bft)
19.01.2020 02:45 0,7 C 0,6 C 94 % 1038,8 hPa 0,0 l/m 0,0 km/h (0 Bft) N 349 0 min 0 W/m -0,2 C 0,7 C 0,0 km/h (0 Bft)
19.01.2020 02:40 0,7 C 0,7 C 94 % 1038,8 hPa 0,0 l/m 0,0 km/h (0 Bft) N 349 0 min 0 W/m -0,2 C 0,7 C 0,0 km/h (0 Bft)
19.01.2020 02:35 0,7 C 0,7 C 94 % 1038,8 hPa 0,0 l/m 0,0 km/h (0 Bft) N 349 0 min 0 W/m -0,2 C 0,7 C 0,0 km/h (0 Bft)
19.01.2020 02:30 0,8 C 0,8 C 94 % 1038,7 hPa 0,0 l/m 0,0 km/h (0 Bft) N 349 0 min 0 W/m -0,1 C 0,8 C 0,0 km/h (0 Bft)
19.01.2020 02:25 0,9 C 0,9 C 94 % 1038,6 hPa 0,0 l/m 0,0 km/h (0 Bft) N 349 0 min 0 W/m 0,0 C 0,9 C 0,0 km/h (0 Bft)
19.01.2020 02:20 0,9 C 0,9 C 94 % 1038,5 hPa 0,0 l/m 0,0 km/h (0 Bft) N 349 0 min 0 W/m 0,0 C 0,9 C 0,0 km/h (0 Bft)
19.01.2020 02:15 1,1 C 1,1 C 94 % 1038,5 hPa 0,0 l/m 0,0 km/h (0 Bft) N 349 0 min 0 W/m 0,2 C 1,1 C 0,0 km/h (0 Bft)
19.01.2020 02:10 1,1 C 1,1 C 94 % 1038,5 hPa 0,0 l/m 0,0 km/h (0 Bft) N 349 0 min 0 W/m 0,2 C 1,1 C 0,0 km/h (0 Bft)
19.01.2020 02:05 1,2 C 1,2 C 94 % 1038,5 hPa 0,0 l/m 0,0 km/h (0 Bft) N 349 0 min 0 W/m 0,3 C 1,2 C 0,0 km/h (0 Bft)
19.01.2020 02:00 1,2 C 1,2 C 94 % 1038,4 hPa 0,0 l/m 0,0 km/h (0 Bft) N 349 0 min 0 W/m 0,3 C 1,2 C 0,0 km/h (0 Bft)
19.01.2020 01:55 1,2 C 1,2 C 94 % 1038,4 hPa 0,0 l/m 0,0 km/h (0 Bft) N 349 0 min 0 W/m 0,3 C 1,2 C 0,0 km/h (0 Bft)
19.01.2020 01:50 1,2 C 1,2 C 94 % 1038,3 hPa 0,0 l/m 0,0 km/h (0 Bft) N 349 0 min 0 W/m 0,3 C 1,2 C 0,0 km/h (0 Bft)
19.01.2020 01:45 1,3 C 1,3 C 94 % 1038,3 hPa 0,0 l/m 0,0 km/h (0 Bft) N 349 0 min 0 W/m 0,4 C 1,3 C 0,0 km/h (0 Bft)
19.01.2020 01:40 1,3 C 1,3 C 94 % 1038,1 hPa 0,0 l/m 0,0 km/h (0 Bft) N 349 0 min 0 W/m 0,4 C 1,3 C 0,0 km/h (0 Bft)
19.01.2020 01:35 1,4 C 1,4 C 94 % 1038,1 hPa 0,0 l/m 0,0 km/h (0 Bft) N 349 0 min 0 W/m 0,5 C 1,4 C 0,0 km/h (0 Bft)
19.01.2020 01:30 1,4 C 1,4 C 94 % 1038,1 hPa 0,0 l/m 0,0 km/h (0 Bft) N 349 0 min 0 W/m 0,5 C 1,4 C 0,0 km/h (0 Bft)
19.01.2020 01:25 1,5 C 1,5 C 94 % 1038,0 hPa 0,0 l/m 0,0 km/h (0 Bft) N 349 0 min 0 W/m 0,6 C 1,5 C 0,0 km/h (0 Bft)
19.01.2020 01:20 1,6 C 1,6 C 94 % 1038,0 hPa 0,0 l/m 0,0 km/h (0 Bft) N 349 0 min 0 W/m 0,7 C 1,6 C 0,0 km/h (0 Bft)
19.01.2020 01:15 1,7 C 1,7 C 94 % 1037,9 hPa 0,0 l/m 0,0 km/h (0 Bft) N 349 0 min 0 W/m 0,8 C 1,7 C 0,0 km/h (0 Bft)
19.01.2020 01:10 1,8 C 1,8 C 94 % 1037,9 hPa 0,0 l/m 0,0 km/h (0 Bft) N 349 0 min 0 W/m 0,9 C 1,8 C 0,0 km/h (0 Bft)
19.01.2020 01:05 1,9 C 1,9 C 94 % 1037,8 hPa 0,0 l/m 0,0 km/h (0 Bft) N 349 0 min 0 W/m 1,0 C 1,9 C 0,0 km/h (0 Bft)
19.01.2020 01:00 2,0 C 2,0 C 94 % 1037,8 hPa 0,0 l/m 0,0 km/h (0 Bft) N 349 0 min 0 W/m 1,1 C 2,0 C 0,0 km/h (0 Bft)
19.01.2020 00:55 2,0 C 2,0 C 94 % 1037,8 hPa 0,0 l/m 0,0 km/h (0 Bft) N 349 0 min 0 W/m 1,1 C 2,0 C 0,0 km/h (0 Bft)
19.01.2020 00:50 2,1 C 2,0 C 94 % 1037,7 hPa 0,0 l/m 0,0 km/h (0 Bft) N 349 0 min 0 W/m 1,2 C 2,1 C 0,0 km/h (0 Bft)
19.01.2020 00:45 2,1 C 2,0 C 94 % 1037,7 hPa 0,0 l/m 0,0 km/h (0 Bft) N 349 0 min 0 W/m 1,2 C 2,1 C 0,0 km/h (0 Bft)
19.01.2020 00:40 2,0 C 2,0 C 94 % 1037,7 hPa 0,0 l/m 0,0 km/h (0 Bft) N 349 0 min 0 W/m 1,1 C 2,0 C 0,0 km/h (0 Bft)
19.01.2020 00:35 2,0 C 2,0 C 94 % 1037,7 hPa 0,0 l/m 0,0 km/h (0 Bft) N 349 0 min 0 W/m 1,1 C 2,0 C 0,0 km/h (0 Bft)
19.01.2020 00:30 2,0 C 2,0 C 94 % 1037,8 hPa 0,0 l/m 0,0 km/h (0 Bft) N 349 0 min 0 W/m 1,1 C 2,0 C 0,0 km/h (0 Bft)
19.01.2020 00:25 2,0 C 2,0 C 94 % 1037,7 hPa 0,0 l/m 0,0 km/h (0 Bft) N 349 0 min 0 W/m 1,1 C 2,0 C 0,0 km/h (0 Bft)
19.01.2020 00:20 2,0 C 2,0 C 94 % 1037,7 hPa 0,0 l/m 0,0 km/h (0 Bft) N 349 0 min 0 W/m 1,1 C 2,0 C 0,0 km/h (0 Bft)
19.01.2020 00:15 2,1 C 2,1 C 94 % 1037,8 hPa 0,0 l/m 0,3 km/h (0 Bft) N 349 0 min 0 W/m 1,2 C 2,1 C 1,6 km/h (1 Bft)
19.01.2020 00:10 2,1 C 2,1 C 94 % 1037,7 hPa 0,0 l/m 0,0 km/h (0 Bft) N 349 0 min 0 W/m 1,2 C 2,1 C 0,0 km/h (0 Bft)
19.01.2020 00:05 2,1 C 2,1 C 94 % 1037,7 hPa 0,0 l/m 0,0 km/h (0 Bft) N-NW 342 0 min 0 W/m 1,2 C 2,1 C 0,0 km/h (0 Bft)
19.01.2020 00:00 2,1 C 2,1 C 94 % 1037,6 hPa 0,0 l/m 0,1 km/h (0 Bft) W 277 0 min 0 W/m 1,2 C 2,1 C 1,6 km/h (1 Bft)
_ Min-Zeit 02:45 02:45 14:20 00:00 - 00:05 - - - - 02:50 02:50 00:05
Minimum _ 0,6 C 0,6 C 88 % 1037,6 hPa - 0,0 km/h (0 Bft) - - - - -0,3 C 0,6 C 0,0 km/h (0 Bft)
_ Max-Zeit 15:05 15:15 03:40 19:50 11:25 13:25 - - 00:00 00:00 13:55 15:05 14:05
Maximum _ 4,1 C 4,1 C 95 % 1049,4 hPa 0,2 l/m 7,7 km/h
N (2 Bft)
- - 0 min 0 W/m 2,5 C 4,1 C 14,5 km/h
N-NW (3 Bft)
Durchschnitt _ 2,2 C 2,2 C 93 % 1042,8 hPa #0,4 l/m 0,9 km/h (0 Bft) NO - #0 min. 0 W/m 1,2 C 2,1 C 2,6 km/h (1 Bft)